Time;durP1;ratioP1;P1;durP2;ratioP2;P2;SDS_P1;SDS_P2;PMS_P1;PMS_P2;Temp;Humidity;BMP_temperature;BMP_pressure;BME280_temperature;BME280_humidity;BME280_pressure;Samples;Min_cycle;Max_cycle;Signal;HPM_P1;HPM_P2
2023/08/14 00:00:50;;;;;;;2.77;2.57;;;14.90;99.90;;;;;;5008875;28;20222;-65
2023/08/14 00:03:20;;;;;;;4.07;2.40;;;14.90;99.90;;;;;;5013330;28;20231;-66
2023/08/14 00:05:48;;;;;;;2.40;2.27;;;14.80;99.90;;;;;;4996696;28;20222;-66
2023/08/14 00:08:17;;;;;;;5.80;2.27;;;14.80;99.90;;;;;;5007656;28;20228;-65
2023/08/14 00:10:47;;;;;;;2.40;2.20;;;14.70;99.90;;;;;;5009039;28;20227;-65
2023/08/14 00:13:19;;;;;;;2.43;2.30;;;14.70;99.90;;;;;;5006595;28;20200;-66
2023/08/14 00:15:48;;;;;;;2.70;2.47;;;14.70;99.90;;;;;;5009129;28;20222;-66
2023/08/14 00:18:16;;;;;;;2.27;2.13;;;14.60;99.90;;;;;;5006191;28;20625;-66
2023/08/14 00:20:45;;;;;;;2.30;2.10;;;14.60;99.90;;;;;;5007725;28;20224;-65
2023/08/14 00:23:13;;;;;;;2.30;2.10;;;14.60;99.90;;;;;;5011695;28;20225;-65
2023/08/14 00:25:41;;;;;;;2.90;2.70;;;14.60;99.90;;;;;;5001031;28;20701;-65
2023/08/14 00:28:11;;;;;;;5.17;2.47;;;14.60;99.90;;;;;;4992055;28;20194;-65
2023/08/14 00:30:39;;;;;;;2.57;2.33;;;14.60;99.90;;;;;;4999958;28;20257;-66
2023/08/14 00:33:07;;;;;;;2.40;2.30;;;14.60;99.90;;;;;;5010735;28;20318;-65
2023/08/14 00:35:36;;;;;;;2.70;2.60;;;14.60;99.90;;;;;;4992383;28;20233;-66
2023/08/14 00:38:04;;;;;;;5.30;2.90;;;14.60;99.90;;;;;;5004757;28;20216;-65
2023/08/14 00:40:33;;;;;;;2.90;2.70;;;14.60;99.90;;;;;;5004550;28;20252;-65
2023/08/14 00:43:01;;;;;;;4.43;3.43;;;14.60;99.90;;;;;;5011892;28;20191;-65
2023/08/14 00:45:31;;;;;;;4.20;3.20;;;14.60;99.90;;;;;;5008178;28;20235;-65
2023/08/14 00:48:14;;;;;;;7.43;3.30;;;14.60;99.90;;;;;;5009772;28;20219;-65
2023/08/14 00:50:43;;;;;;;4.73;3.93;;;14.70;99.90;;;;;;5007191;28;20222;-65
2023/08/14 00:53:14;;;;;;;4.57;3.70;;;14.70;99.90;;;;;;5009745;28;20236;-65
2023/08/14 00:55:42;;;;;;;8.03;4.60;;;14.70;99.90;;;;;;4994952;28;20231;-65
2023/08/14 00:58:12;;;;;;;7.10;3.77;;;14.70;99.90;;;;;;5012330;28;20190;-65
2023/08/14 01:00:44;;;;;;;5.20;4.70;;;14.70;99.90;;;;;;5010151;28;20226;-65
2023/08/14 01:03:13;;;;;;;4.93;4.47;;;14.70;99.90;;;;;;5006150;28;20223;-65
2023/08/14 01:05:41;;;;;;;6.53;4.40;;;14.70;99.90;;;;;;5009108;28;20223;-65
2023/08/14 01:08:10;;;;;;;6.20;4.50;;;14.70;99.90;;;;;;5013053;28;20271;-65
2023/08/14 01:10:51;;;;;;;13.60;5.17;;;14.70;99.90;;;;;;5001579;28;20613;-65
2023/08/14 01:13:27;;;;;;;6.60;5.37;;;14.70;99.90;;;;;;5008345;28;20245;-65
2023/08/14 01:16:00;;;;;;;8.73;5.27;;;14.70;99.90;;;;;;5007663;28;20220;-65
2023/08/14 01:18:31;;;;;;;10.93;5.63;;;14.70;99.90;;;;;;5008788;28;20594;-65
2023/08/14 01:21:12;;;;;;;6.57;5.20;;;14.70;99.90;;;;;;5005709;28;20236;-65
2023/08/14 01:23:50;;;;;;;9.10;5.40;;;14.70;99.90;;;;;;5007044;28;20222;-65
2023/08/14 01:26:20;;;;;;;8.00;5.90;;;14.70;99.90;;;;;;5009928;28;20299;-65
2023/08/14 01:28:49;;;;;;;12.53;5.97;;;14.70;99.90;;;;;;5011155;28;20744;-65
2023/08/14 01:31:17;;;;;;;8.80;6.00;;;14.70;99.90;;;;;;5004165;28;20220;-65
2023/08/14 01:33:45;;;;;;;9.40;6.10;;;14.70;99.90;;;;;;5010997;28;20224;-65
2023/08/14 01:36:19;;;;;;;8.30;5.80;;;14.70;99.90;;;;;;5008858;28;20288;-65
2023/08/14 01:38:57;;;;;;;8.50;5.73;;;14.70;99.90;;;;;;5008124;28;20683;-65
2023/08/14 01:41:32;;;;;;;7.07;5.93;;;14.60;99.90;;;;;;5007150;28;20228;-65
2023/08/14 01:44:06;;;;;;;8.27;5.33;;;14.50;99.90;;;;;;5007229;28;20684;-65
2023/08/14 01:46:36;;;;;;;5.63;5.10;;;14.50;99.90;;;;;;5010014;28;20200;-65
2023/08/14 01:49:05;;;;;;;7.30;5.83;;;14.40;99.90;;;;;;5009708;28;20187;-65
2023/08/14 01:51:34;;;;;;;11.50;6.40;;;14.40;99.90;;;;;;5009932;28;20279;-65
2023/08/14 01:54:02;;;;;;;7.00;5.77;;;14.40;99.90;;;;;;5006789;28;20228;-65
2023/08/14 01:56:32;;;;;;;8.47;5.53;;;14.40;99.90;;;;;;5003105;28;20242;-65
2023/08/14 01:59:00;;;;;;;7.07;5.90;;;14.30;99.90;;;;;;5003385;28;20684;-65
2023/08/14 02:01:29;;;;;;;9.17;6.43;;;14.30;99.90;;;;;;5009334;28;20222;-65
2023/08/14 02:03:57;;;;;;;8.47;6.60;;;14.30;99.90;;;;;;5005053;28;20650;-65
2023/08/14 02:06:26;;;;;;;10.90;5.83;;;14.30;99.90;;;;;;5001726;28;20813;-65
2023/08/14 02:08:54;;;;;;;10.50;7.17;;;14.30;99.90;;;;;;5008920;28;20230;-65
2023/08/14 02:11:22;;;;;;;11.50;7.80;;;14.30;99.90;;;;;;5006087;28;20228;-65
2023/08/14 02:13:52;;;;;;;12.87;6.27;;;14.30;99.90;;;;;;5009116;28;20225;-65
2023/08/14 02:16:20;;;;;;;14.03;6.60;;;14.30;99.90;;;;;;4991783;28;20285;-63
2023/08/14 02:18:49;;;;;;;10.27;7.00;;;14.20;99.90;;;;;;5003465;28;20209;-65
2023/08/14 02:21:17;;;;;;;9.57;6.00;;;14.20;99.90;;;;;;5007693;28;20228;-66
2023/08/14 02:23:45;;;;;;;8.73;5.67;;;14.20;99.90;;;;;;5009738;28;20377;-65
2023/08/14 02:26:14;;;;;;;10.23;5.67;;;14.30;99.90;;;;;;5011861;28;20280;-65
2023/08/14 02:28:42;;;;;;;7.07;5.50;;;14.30;99.90;;;;;;5011172;28;20229;-65
2023/08/14 02:31:12;;;;;;;5.93;5.43;;;14.40;99.90;;;;;;5012579;28;20212;-65
2023/08/14 02:33:40;;;;;;;9.10;5.53;;;14.40;99.90;;;;;;5003098;28;20569;-65
2023/08/14 02:36:09;;;;;;;6.10;5.13;;;14.40;99.90;;;;;;5003518;28;20264;-65
2023/08/14 02:38:37;;;;;;;7.40;5.43;;;14.40;99.90;;;;;;4985595;28;20220;-65
2023/08/14 02:41:06;;;;;;;9.27;4.97;;;14.40;99.90;;;;;;5006805;28;20333;-65
2023/08/14 02:43:34;;;;;;;11.60;5.17;;;14.40;99.90;;;;;;5009923;28;20211;-65
2023/08/14 02:46:02;;;;;;;6.80;5.00;;;14.40;99.90;;;;;;5009588;28;20190;-65
2023/08/14 02:48:32;;;;;;;7.40;5.40;;;14.40;99.90;;;;;;5006146;28;20607;-66
2023/08/14 02:51:02;;;;;;;10.13;5.03;;;14.40;99.90;;;;;;5007197;28;20222;-65
2023/08/14 02:53:30;;;;;;;5.83;4.60;;;14.40;99.90;;;;;;5008022;28;20230;-65
2023/08/14 02:55:59;;;;;;;5.93;4.30;;;14.40;99.90;;;;;;5009344;28;20224;-65
2023/08/14 02:58:27;;;;;;;7.53;4.80;;;14.40;99.90;;;;;;4985681;28;20201;-65
2023/08/14 03:00:56;;;;;;;5.03;4.60;;;14.40;99.90;;;;;;5009411;28;20198;-65
2023/08/14 03:03:24;;;;;;;6.83;4.57;;;14.40;99.90;;;;;;5004412;28;20292;-65
2023/08/14 03:05:58;;;;;;;12.03;4.63;;;14.40;99.90;;;;;;5009569;28;20251;-65
2023/08/14 03:08:27;;;;;;;7.03;4.73;;;14.40;99.90;;;;;;5014130;28;20218;-65
2023/08/14 03:10:55;;;;;;;4.60;4.23;;;14.40;99.90;;;;;;5004168;28;20219;-65
2023/08/14 03:13:24;;;;;;;7.90;4.53;;;14.30;99.90;;;;;;5014894;28;20182;-65
2023/08/14 03:15:53;;;;;;;5.40;4.90;;;14.30;99.90;;;;;;5002273;28;20654;-65
2023/08/14 03:18:21;;;;;;;5.00;4.50;;;14.30;99.90;;;;;;5011854;28;20748;-65
2023/08/14 03:20:50;;;;;;;6.27;4.37;;;14.30;99.90;;;;;;5009191;28;20226;-65
2023/08/14 03:23:20;;;;;;;5.67;4.47;;;14.30;99.90;;;;;;5011929;28;20230;-65
2023/08/14 03:25:48;;;;;;;6.37;4.70;;;14.30;99.90;;;;;;5007510;28;20930;-65
2023/08/14 03:28:16;;;;;;;6.57;4.80;;;14.30;99.90;;;;;;4995886;28;20191;-66
2023/08/14 03:30:45;;;;;;;9.87;4.90;;;14.30;99.90;;;;;;5012190;28;20338;-66
2023/08/14 03:33:13;;;;;;;6.63;5.17;;;14.20;99.90;;;;;;5006153;28;20235;-66
2023/08/14 03:35:42;;;;;;;6.77;5.07;;;14.20;99.90;;;;;;5007703;28;20219;-66
2023/08/14 03:38:10;;;;;;;5.03;4.63;;;14.20;99.90;;;;;;5009377;28;20223;-66
2023/08/14 03:40:39;;;;;;;6.70;5.00;;;14.20;99.90;;;;;;5003561;28;20204;-65
2023/08/14 03:43:08;;;;;;;9.60;5.47;;;14.20;99.90;;;;;;5013903;28;20210;-66
2023/08/14 03:45:36;;;;;;;5.70;5.07;;;14.20;99.90;;;;;;5011869;28;20226;-66
2023/08/14 03:48:05;;;;;;;7.30;5.40;;;14.10;99.90;;;;;;5009222;28;20235;-66
2023/08/14 03:50:33;;;;;;;10.63;5.40;;;14.10;99.90;;;;;;5009060;28;20808;-66
2023/08/14 03:53:02;;;;;;;9.43;4.90;;;14.10;99.90;;;;;;5012449;28;20231;-66
2023/08/14 03:55:30;;;;;;;7.73;4.80;;;14.10;99.90;;;;;;5011308;28;20188;-66
2023/08/14 03:58:03;;;;;;;5.40;4.80;;;14.10;99.90;;;;;;5011369;28;20222;-66
2023/08/14 04:00:31;;;;;;;11.93;4.90;;;14.10;99.90;;;;;;5012529;28;20219;-66
2023/08/14 04:03:00;;;;;;;5.23;4.47;;;14.10;99.90;;;;;;5019423;28;20251;-66
2023/08/14 04:05:28;;;;;;;8.57;5.27;;;14.10;99.90;;;;;;5010757;28;20213;-66
2023/08/14 04:07:57;;;;;;;5.43;4.93;;;14.10;99.90;;;;;;5016431;28;20740;-66
2023/08/14 04:10:25;;;;;;;5.07;4.63;;;14.10;99.90;;;;;;5011965;28;20226;-64
2023/08/14 04:12:54;;;;;;;5.93;4.87;;;14.10;99.90;;;;;;5009569;28;20688;-66
2023/08/14 04:15:30;;;;;;;8.87;5.37;;;14.00;99.90;;;;;;5011465;28;20222;-65
2023/08/14 04:17:58;;;;;;;9.80;5.40;;;14.10;99.90;;;;;;5010051;28;20223;-66
2023/08/14 04:20:27;;;;;;;6.33;4.97;;;14.10;99.90;;;;;;5002304;28;20707;-66
2023/08/14 04:22:55;;;;;;;8.87;4.73;;;14.10;99.90;;;;;;5006837;28;20713;-66
2023/08/14 04:25:23;;;;;;;8.27;4.70;;;14.10;99.90;;;;;;5011151;28;20195;-65
2023/08/14 04:27:52;;;;;;;5.87;5.00;;;14.10;99.90;;;;;;5000186;28;20195;-66
2023/08/14 04:30:20;;;;;;;11.30;4.87;;;14.10;99.90;;;;;;5006096;28;20222;-66
2023/08/14 04:32:50;;;;;;;6.43;4.70;;;14.10;99.90;;;;;;5010435;28;20234;-66
2023/08/14 04:35:18;;;;;;;8.50;5.20;;;14.20;99.90;;;;;;5008358;28;20273;-66
2023/08/14 04:37:46;;;;;;;6.73;4.70;;;14.20;99.90;;;;;;5010797;28;20230;-66
2023/08/14 04:40:16;;;;;;;5.90;4.60;;;14.20;99.90;;;;;;5010984;28;20190;-66
2023/08/14 04:42:45;;;;;;;7.60;4.90;;;14.20;99.90;;;;;;4993918;28;20219;-66
2023/08/14 04:45:13;;;;;;;4.47;4.07;;;14.30;99.90;;;;;;5012514;28;20313;-66
2023/08/14 04:47:41;;;;;;;5.43;4.87;;;14.30;99.90;;;;;;5011055;28;20747;-66
2023/08/14 04:50:11;;;;;;;4.80;4.40;;;14.30;99.90;;;;;;5005274;28;20228;-66
2023/08/14 04:52:40;;;;;;;6.20;4.40;;;14.30;99.90;;;;;;5005512;28;20279;-66
2023/08/14 04:55:08;;;;;;;10.57;4.50;;;14.30;99.90;;;;;;5008608;28;20184;-66
2023/08/14 04:57:36;;;;;;;6.50;4.20;;;14.40;99.90;;;;;;5009627;28;20228;-66
2023/08/14 05:00:06;;;;;;;9.47;4.70;;;14.40;99.90;;;;;;4992457;28;20215;-66
2023/08/14 05:02:35;;;;;;;9.07;4.20;;;14.40;99.90;;;;;;5011207;28;20227;-66
2023/08/14 05:05:03;;;;;;;6.20;4.37;;;14.50;99.90;;;;;;5005301;28;20730;-66
2023/08/14 05:07:33;;;;;;;6.27;4.50;;;14.50;99.90;;;;;;5007746;28;20186;-66
2023/08/14 05:10:01;;;;;;;8.43;4.73;;;14.50;99.90;;;;;;5015304;28;20266;-66
2023/08/14 05:12:30;;;;;;;4.63;4.20;;;14.50;99.90;;;;;;5006449;28;20231;-66
2023/08/14 05:14:59;;;;;;;8.73;5.07;;;14.60;99.90;;;;;;5003267;28;20304;-66
2023/08/14 05:17:27;;;;;;;6.23;5.07;;;14.60;99.90;;;;;;5004960;28;20301;-66
2023/08/14 05:19:56;;;;;;;5.80;4.60;;;14.70;99.90;;;;;;5008099;28;20231;-66
2023/08/14 05:22:24;;;;;;;5.57;4.33;;;14.70;99.90;;;;;;5008384;28;20186;-66
2023/08/14 05:24:54;;;;;;;4.83;4.13;;;14.70;99.90;;;;;;5010773;28;20203;-66
2023/08/14 05:27:22;;;;;;;4.93;4.40;;;14.80;99.90;;;;;;5006895;28;20232;-66
2023/08/14 05:29:51;;;;;;;6.60;4.60;;;14.90;99.90;;;;;;4995829;28;20312;-66
2023/08/14 05:32:19;;;;;;;4.63;4.27;;;14.90;99.90;;;;;;5005046;28;20220;-66
2023/08/14 05:34:47;;;;;;;8.40;4.47;;;15.00;99.90;;;;;;5009326;28;20726;-66
2023/08/14 05:37:16;;;;;;;4.47;4.10;;;15.00;99.90;;;;;;5005276;28;20191;-66
2023/08/14 05:39:44;;;;;;;8.17;4.33;;;15.00;99.90;;;;;;5011391;28;20227;-66
2023/08/14 05:42:15;;;;;;;5.80;4.50;;;15.10;99.90;;;;;;4988223;28;20249;-66
2023/08/14 05:44:44;;;;;;;4.37;4.00;;;15.10;99.90;;;;;;5007513;28;20598;-66
2023/08/14 05:47:12;;;;;;;6.50;4.10;;;15.20;99.90;;;;;;5010313;28;20319;-66
2023/08/14 05:49:40;;;;;;;5.83;4.00;;;15.40;99.90;;;;;;5012580;28;20650;-66
2023/08/14 05:52:09;;;;;;;6.07;4.10;;;15.50;99.90;;;;;;5000561;28;20296;-66
2023/08/14 05:54:37;;;;;;;8.87;3.90;;;15.60;99.90;;;;;;4990229;28;20731;-66
2023/08/14 05:57:06;;;;;;;3.90;3.60;;;15.70;99.90;;;;;;5007859;28;20219;-66
2023/08/14 05:59:35;;;;;;;3.93;3.53;;;15.90;99.90;;;;;;5001472;28;20220;-66
2023/08/14 06:02:04;;;;;;;3.60;3.30;;;16.10;99.90;;;;;;5005572;28;20257;-66
2023/08/14 06:04:33;;;;;;;4.47;3.70;;;16.30;99.90;;;;;;5004026;28;20275;-66
2023/08/14 06:07:01;;;;;;;6.13;3.63;;;16.30;99.90;;;;;;5008991;28;20197;-66
2023/08/14 06:09:29;;;;;;;3.27;3.00;;;16.30;99.90;;;;;;5007274;28;20241;-66
2023/08/14 06:11:58;;;;;;;10.03;3.77;;;16.40;99.90;;;;;;5004494;28;20313;-66
2023/08/14 06:14:26;;;;;;;4.97;3.73;;;16.40;99.90;;;;;;5006111;28;20227;-66
2023/08/14 06:16:56;;;;;;;3.53;3.10;;;16.30;99.90;;;;;;5005920;28;20651;-66
2023/08/14 06:19:24;;;;;;;3.83;3.53;;;16.30;99.90;;;;;;5009863;28;20196;-63
2023/08/14 06:21:54;;;;;;;3.73;3.20;;;16.30;99.90;;;;;;5004892;28;20279;-66
2023/08/14 06:24:22;;;;;;;4.50;3.50;;;16.40;99.90;;;;;;5004295;28;20684;-66
2023/08/14 06:26:50;;;;;;;5.33;3.40;;;16.40;99.90;;;;;;5002137;28;20222;-66
2023/08/14 06:29:19;;;;;;;3.70;3.40;;;16.40;99.90;;;;;;5002854;28;20225;-66
2023/08/14 06:31:47;;;;;;;4.63;2.97;;;16.50;99.90;;;;;;5009392;28;20234;-66
2023/08/14 06:34:17;;;;;;;4.43;3.50;;;16.50;99.90;;;;;;5003645;28;20240;-66
2023/08/14 06:36:46;;;;;;;3.40;3.10;;;16.60;99.90;;;;;;5004980;28;20217;-66
2023/08/14 06:39:14;;;;;;;5.63;2.93;;;16.80;99.90;;;;;;5005453;28;20585;-64
2023/08/14 06:41:43;;;;;;;5.30;3.30;;;17.10;99.90;;;;;;5001820;28;20226;-66
2023/08/14 06:44:12;;;;;;;4.93;2.80;;;17.40;99.90;;;;;;4998129;28;20221;-64
2023/08/14 06:46:41;;;;;;;7.97;3.47;;;17.80;99.90;;;;;;5001637;28;20425;-65
2023/08/14 06:49:10;;;;;;;4.77;3.20;;;18.10;99.90;;;;;;5004238;28;20653;-65
2023/08/14 06:51:40;;;;;;;2.97;2.77;;;18.50;99.90;;;;;;5012721;28;20312;-65
2023/08/14 06:54:09;;;;;;;3.77;2.87;;;18.60;99.90;;;;;;5012482;28;20337;-65
2023/08/14 06:56:37;;;;;;;5.60;3.00;;;18.80;99.90;;;;;;5011565;28;20577;-65
2023/08/14 06:59:05;;;;;;;2.97;2.77;;;18.90;99.90;;;;;;5008985;28;20241;-65
2023/08/14 07:01:34;;;;;;;3.37;2.50;;;19.00;99.90;;;;;;5011716;28;20218;-65
2023/08/14 07:04:05;;;;;;;5.63;3.60;;;19.00;99.90;;;;;;5012241;28;20264;-65
2023/08/14 07:06:34;;;;;;;2.70;2.50;;;19.30;99.90;;;;;;4992473;28;20308;-65
2023/08/14 07:09:04;;;;;;;5.03;2.80;;;19.60;99.90;;;;;;5011346;28;20237;-65
2023/08/14 07:11:38;;;;;;;5.70;3.03;;;19.90;99.90;;;;;;4995993;28;20230;-65
2023/08/14 07:14:07;;;;;;;5.83;2.77;;;20.10;97.20;;;;;;5013721;28;20285;-65
2023/08/14 07:16:36;;;;;;;5.60;2.70;;;20.40;94.80;;;;;;5015783;28;20564;-65
2023/08/14 07:19:05;;;;;;;7.30;2.70;;;20.50;79.90;;;;;;5015260;28;20267;-65
2023/08/14 07:21:34;;;;;;;4.27;2.27;;;20.80;63.80;;;;;;5015710;28;20218;-66
2023/08/14 07:24:04;;;;;;;4.73;2.73;;;20.90;71.70;;;;;;5012537;28;20226;-65
2023/08/14 07:26:32;;;;;;;7.23;2.53;;;21.10;69.60;;;;;;5011065;28;20596;-65
2023/08/14 07:29:01;;;;;;;2.97;2.30;;;21.20;69.10;;;;;;5015212;28;20194;-65
2023/08/14 07:31:29;;;;;;;8.13;2.80;;;21.40;58.20;;;;;;5015403;28;20199;-65
2023/08/14 07:33:57;;;;;;;7.10;2.53;;;21.50;63.60;;;;;;5012602;28;20219;-66
2023/08/14 07:36:26;;;;;;;4.40;2.27;;;21.70;48.20;;;;;;5015036;28;20922;-65
2023/08/14 07:38:54;;;;;;;4.47;2.40;;;21.90;45.10;;;;;;5022786;28;20231;-66
2023/08/14 07:41:24;;;;;;;5.23;2.17;;;21.90;36.10;;;;;;5011232;28;20303;-65
2023/08/14 07:43:52;;;;;;;4.87;2.67;;;22.10;44.30;;;;;;5020026;28;20196;-65
2023/08/14 07:46:20;;;;;;;7.10;2.43;;;22.10;30.20;;;;;;4996983;28;20220;-65
2023/08/14 07:48:48;;;;;;;6.30;2.20;;;22.30;51.30;;;;;;5013404;28;20229;-66
2023/08/14 07:51:19;;;;;;;2.77;2.03;;;22.40;15.80;;;;;;5014336;28;20238;-66
2023/08/14 07:53:47;;;;;;;2.93;2.00;;;22.60;3.50;;;;;;5002346;28;20233;-66
2023/08/14 07:56:16;;;;;;;3.47;2.43;;;22.70;1.00;;;;;;5013647;28;20190;-66
2023/08/14 07:58:45;;;;;;;5.70;2.40;;;22.80;1.00;;;;;;5009506;28;20190;-66
2023/08/14 08:01:14;;;;;;;4.47;2.37;;;22.70;1.00;;;;;;5017801;28;20724;-66
2023/08/14 08:03:42;;;;;;;3.80;2.00;;;22.90;1.00;;;;;;5000501;28;21027;-66
2023/08/14 08:06:10;;;;;;;5.60;2.10;;;23.40;1.00;;;;;;5008972;28;20312;-66
2023/08/14 08:08:39;;;;;;;2.70;2.10;;;23.70;1.00;;;;;;4999794;28;20239;-66
2023/08/14 08:11:13;;;;;;;4.03;2.20;;;23.90;1.00;;;;;;5013324;28;20190;-66
2023/08/14 08:13:42;;;;;;;4.20;2.37;;;23.90;1.00;;;;;;5015178;28;20202;-65
2023/08/14 08:16:12;;;;;;;6.00;2.10;;;24.00;1.00;;;;;;5013806;28;20618;-65
2023/08/14 08:19:18;;;;;;;2.13;1.80;;;24.30;1.00;;;;;;5003048;28;20231;-66
2023/08/14 08:21:54;;;;;;;3.90;1.97;;;24.60;1.00;;;;;;5004236;28;20743;-65
2023/08/14 08:24:55;;;;;;;3.58;1.95;;;24.60;1.00;;;;;;5010304;28;20600;-65
2023/08/14 08:27:23;;;;;;;3.67;1.70;;;24.30;1.00;;;;;;5011719;28;20207;-65
2023/08/14 08:30:13;;;;;;;4.05;1.90;;;24.40;1.00;;;;;;5013337;28;20314;-65
2023/08/14 08:32:43;;;;;;;4.60;1.60;;;24.80;1.00;;;;;;5011332;28;20233;-65
2023/08/14 08:35:14;;;;;;;5.47;2.35;;;25.10;1.00;;;;;;5006283;28;20217;-65
2023/08/14 08:37:42;;;;;;;4.75;1.88;;;25.30;1.00;;;;;;5018681;28;20250;-65
2023/08/14 08:40:48;;;;;;;2.80;1.70;;;25.30;1.00;;;;;;5019418;28;20691;-65
2023/08/14 08:43:17;;;;;;;2.22;1.73;;;25.50;1.00;;;;;;5017869;28;20223;-65
2023/08/14 08:45:50;;;;;;;3.92;2.15;;;25.70;1.00;;;;;;5006626;28;20327;-65
2023/08/14 08:48:23;;;;;;;4.88;2.00;;;25.80;99.90;;;;;;5017360;28;20249;-66
2023/08/14 08:50:52;;;;;;;5.72;1.48;;;25.80;99.90;;;;;;5012405;28;20219;-64
2023/08/14 08:53:27;;;;;;;3.40;2.28;;;25.90;31.70;;;;;;5017099;28;20792;-65
2023/08/14 08:55:57;;;;;;;4.20;1.92;;;26.00;99.90;;;;;;5013207;28;20825;-64
2023/08/14 08:58:27;;;;;;;5.93;1.90;;;26.10;1.00;;;;;;5005316;28;20221;-65
2023/08/14 09:00:56;;;;;;;4.22;2.00;;;26.20;99.90;;;;;;5005885;28;20229;-65
2023/08/14 09:03:25;;;;;;;3.47;1.95;;;26.30;1.00;;;;;;5011728;28;20860;-65
2023/08/14 09:05:54;;;;;;;6.07;1.70;;;26.30;1.00;;;;;;5014387;28;20602;-65
2023/08/14 09:08:25;;;;;;;3.78;1.70;;;26.30;99.90;;;;;;5012470;28;20275;-65
2023/08/14 09:10:54;;;;;;;3.47;1.88;;;26.70;1.00;;;;;;5019573;28;20692;-65
2023/08/14 09:13:23;;;;;;;3.38;1.80;;;26.70;1.00;;;;;;5013437;28;20222;-65
2023/08/14 09:16:01;;;;;;;4.03;1.80;;;27.00;1.00;;;;;;5012349;28;20230;-65
2023/08/14 09:18:32;;;;;;;2.70;1.45;;;27.20;1.00;;;;;;4993853;28;20323;-65
2023/08/14 09:21:03;;;;;;;2.25;1.27;;;27.40;1.00;;;;;;5008314;28;20194;-65
2023/08/14 09:23:32;;;;;;;5.53;1.88;;;27.30;1.00;;;;;;5009199;28;20218;-65
2023/08/14 09:26:01;;;;;;;6.18;1.90;;;27.50;17.10;;;;;;5012923;28;20229;-65
2023/08/14 09:28:29;;;;;;;3.10;1.73;;;27.30;99.90;;;;;;5017314;28;20233;-65
2023/08/14 09:31:06;;;;;;;1.70;1.60;;;27.60;1.00;;;;;;5012271;28;20302;-66
2023/08/14 09:33:38;;;;;;;4.47;2.08;;;27.90;1.00;;;;;;5014162;28;20218;-65
2023/08/14 09:36:07;;;;;;;4.10;1.45;;;27.80;1.00;;;;;;5013389;28;20222;-65
2023/08/14 09:38:37;;;;;;;5.13;2.03;;;28.00;1.00;;;;;;5012424;28;20205;-65
2023/08/14 09:41:05;;;;;;;3.05;1.80;;;28.30;1.00;;;;;;5012836;28;20214;-65
2023/08/14 09:43:34;;;;;;;4.28;1.80;;;28.30;1.00;;;;;;5022000;28;20229;-65
2023/08/14 09:46:03;;;;;;;4.15;1.70;;;28.70;60.50;;;;;;5011832;28;20600;-65
2023/08/14 09:48:43;;;;;;;2.72;1.60;;;28.90;1.00;;;;;;5012377;28;20724;-65
2023/08/14 09:51:12;;;;;;;2.72;1.67;;;29.20;78.30;;;;;;5009432;28;20186;-65
2023/08/14 09:53:47;;;;;;;5.07;2.08;;;29.60;99.90;;;;;;5004768;28;20198;-65
2023/08/14 09:56:16;;;;;;;4.15;1.80;;;29.50;99.90;;;;;;5009022;28;20222;-65
2023/08/14 09:58:45;;;;;;;4.35;1.70;;;29.60;1.00;;;;;;5015024;28;20214;-65
2023/08/14 10:01:15;;;;;;;2.97;2.10;;;29.50;99.90;;;;;;5011479;28;20226;-65
2023/08/14 10:03:49;;;;;;;2.53;1.80;;;29.90;1.00;;;;;;5010994;28;20340;-65
2023/08/14 10:06:18;;;;;;;5.43;2.00;;;29.70;99.90;;;;;;5002694;28;20206;-65
2023/08/14 10:08:50;;;;;;;2.40;1.77;;;29.20;99.90;;;;;;5006497;28;20232;-65
2023/08/14 10:11:20;;;;;;;3.55;1.90;;;29.00;1.00;;;;;;5012427;28;20226;-64
2023/08/14 10:14:11;;;;;;;7.05;1.63;;;29.00;99.90;;;;;;4999486;28;20237;-64
2023/08/14 10:16:41;;;;;;;3.92;2.10;;;29.60;1.00;;;;;;5004280;28;20214;-64
2023/08/14 10:19:14;;;;;;;6.53;2.35;;;29.90;1.00;;;;;;5016518;28;20325;-65
2023/08/14 10:22:06;;;;;;;3.08;2.08;;;30.40;42.50;;;;;;5003002;28;20230;-65
2023/08/14 10:24:39;;;;;;;2.83;2.00;;;30.10;99.90;;;;;;5012429;28;20658;-64
2023/08/14 10:27:08;;;;;;;7.57;1.83;;;29.50;1.00;;;;;;5014251;28;20314;-63
2023/08/14 10:29:57;;;;;;;2.20;2.00;;;29.30;99.90;;;;;;5015355;28;20233;-64
2023/08/14 10:32:28;;;;;;;4.45;1.80;;;29.50;1.00;;;;;;5006651;28;20228;-65
2023/08/14 10:35:00;;;;;;;3.90;1.90;;;30.10;1.00;;;;;;5013643;28;20688;-64
2023/08/14 10:37:42;;;;;;;2.42;1.80;;;30.20;1.00;;;;;;5017538;28;20300;-65
2023/08/14 10:40:18;;;;;;;7.32;2.25;;;30.20;1.00;;;;;;5012411;28;20230;-65
2023/08/14 10:42:47;;;;;;;3.58;1.90;;;30.40;29.40;;;;;;5022936;28;20269;-65
2023/08/14 10:45:19;;;;;;;5.28;2.10;;;30.60;1.00;;;;;;5007830;28;20205;-65
2023/08/14 10:48:09;;;;;;;6.13;2.20;;;30.60;1.00;;;;;;5015582;28;20292;-65
2023/08/14 10:50:40;;;;;;;2.30;1.83;;;30.60;1.00;;;;;;5005262;28;20580;-65
2023/08/14 10:53:12;;;;;;;5.30;2.00;;;30.40;99.90;;;;;;5014725;28;20626;-65
2023/08/14 10:55:42;;;;;;;5.18;2.30;;;30.20;99.90;;;;;;5013616;28;20223;-65
2023/08/14 10:58:40;;;;;;;3.55;2.10;;;30.10;1.00;;;;;;5010142;28;20680;-65
2023/08/14 11:01:10;;;;;;;2.75;1.98;;;30.30;1.00;;;;;;5017706;28;20296;-65
2023/08/14 11:04:03;;;;;;;2.53;1.85;;;30.00;99.90;;;;;;5014840;28;20232;-64
2023/08/14 11:06:49;;;;;;;5.10;1.90;;;30.10;1.00;;;;;;5006749;28;20264;-64
2023/08/14 11:09:18;;;;;;;5.20;1.83;;;29.90;99.90;;;;;;5004739;28;20229;-63
2023/08/14 11:11:49;;;;;;;3.58;2.00;;;29.80;1.00;;;;;;5013263;28;20205;-62
2023/08/14 11:14:18;;;;;;;3.10;1.90;;;29.90;1.00;;;;;;4996421;28;20221;-62
2023/08/14 11:16:49;;;;;;;4.63;2.17;;;29.40;1.00;;;;;;5011724;28;20214;-62
2023/08/14 11:19:19;;;;;;;3.92;1.90;;;28.70;99.90;;;;;;4992388;28;20256;-62
2023/08/14 11:21:49;;;;;;;4.35;1.90;;;28.90;1.00;;;;;;5015109;28;20774;-62
2023/08/14 11:24:20;;;;;;;3.72;2.20;;;29.40;1.00;;;;;;5014040;28;20684;-62
2023/08/14 11:26:51;;;;;;;5.25;2.10;;;29.60;99.90;;;;;;5016277;28;20293;-62
2023/08/14 11:29:31;;;;;;;4.55;2.22;;;29.70;1.00;;;;;;5006966;28;20218;-62
2023/08/14 11:32:02;;;;;;;3.35;1.88;;;29.80;99.90;;;;;;5012497;28;20221;-62
2023/08/14 11:34:34;;;;;;;4.20;2.10;;;29.90;1.00;;;;;;5003279;28;20541;-62
2023/08/14 11:37:07;;;;;;;5.65;2.15;;;30.10;1.00;;;;;;5011111;28;20238;-62
2023/08/14 11:39:38;;;;;;;5.57;1.83;;;30.10;99.90;;;;;;5011556;28;20261;-63
2023/08/14 11:42:06;;;;;;;7.60;2.05;;;30.30;99.90;;;;;;5011705;28;20187;-63
2023/08/14 11:44:36;;;;;;;7.15;2.10;;;30.20;99.90;;;;;;5016603;28;20206;-62
2023/08/14 11:47:06;;;;;;;5.25;2.10;;;29.80;1.00;;;;;;5009114;28;20226;-62
2023/08/14 11:49:37;;;;;;;6.30;2.38;;;29.90;99.90;;;;;;5007210;28;20218;-64
2023/08/14 11:52:07;;;;;;;4.70;2.20;;;29.90;99.90;;;;;;5008531;28;20274;-67
2023/08/14 11:54:36;;;;;;;3.10;2.28;;;29.80;1.00;;;;;;5003756;28;20222;-64
2023/08/14 11:57:07;;;;;;;6.78;2.10;;;29.80;99.90;;;;;;5006961;28;20229;-63
2023/08/14 11:59:37;;;;;;;4.43;2.22;;;30.00;99.90;;;;;;5012716;28;20191;-63
2023/08/14 12:02:07;;;;;;;3.88;1.98;;;30.10;99.90;;;;;;5007766;28;20317;-64
2023/08/14 12:04:40;;;;;;;7.97;2.45;;;29.90;1.00;;;;;;4989268;28;20226;-64
2023/08/14 12:07:11;;;;;;;4.95;2.03;;;29.80;1.00;;;;;;5012970;28;20782;-65
2023/08/14 12:09:39;;;;;;;5.43;1.90;;;29.60;1.00;;;;;;5011667;28;20237;-63
2023/08/14 12:12:08;;;;;;;5.22;2.10;;;29.10;1.00;;;;;;5009488;28;20193;-63
2023/08/14 12:14:40;;;;;;;6.68;1.98;;;28.90;1.00;;;;;;5012431;28;20203;-63
2023/08/14 12:17:10;;;;;;;6.60;2.03;;;28.80;1.00;;;;;;5024208;28;20243;-64
2023/08/14 12:19:50;;;;;;;8.32;2.30;;;28.90;1.00;;;;;;5010515;28;20223;-64
2023/08/14 12:22:22;;;;;;;5.45;2.40;;;28.90;1.00;;;;;;5015729;28;20271;-64
2023/08/14 12:24:51;;;;;;;4.82;2.03;;;29.00;99.90;;;;;;5019811;28;20228;-64
2023/08/14 12:27:21;;;;;;;3.17;2.33;;;29.10;1.00;;;;;;5013215;28;20304;-64
2023/08/14 12:29:52;;;;;;;4.47;2.28;;;29.10;1.00;;;;;;4984378;28;20256;-64
2023/08/14 12:32:21;;;;;;;5.25;2.10;;;29.10;99.90;;;;;;5004208;28;20859;-64
2023/08/14 12:34:50;;;;;;;6.93;2.00;;;29.20;99.90;;;;;;5008206;28;20228;-64
2023/08/14 12:37:21;;;;;;;8.75;2.30;;;29.20;4.00;;;;;;5014970;28;20215;-63
2023/08/14 12:39:52;;;;;;;5.03;2.10;;;29.10;1.00;;;;;;5018029;28;20385;-64
2023/08/14 12:42:21;;;;;;;4.60;2.13;;;28.90;1.00;;;;;;5020267;28;20197;-63
2023/08/14 12:44:52;;;;;;;10.32;2.38;;;29.00;1.00;;;;;;5010813;28;20198;-63
2023/08/14 12:47:21;;;;;;;3.58;2.05;;;28.80;1.00;;;;;;5015243;28;20221;-64
2023/08/14 12:49:50;;;;;;;9.10;2.70;;;28.70;1.00;;;;;;4994491;28;20774;-64
2023/08/14 12:52:18;;;;;;;6.45;2.40;;;28.60;1.00;;;;;;5009232;28;20679;-64
2023/08/14 12:55:09;;;;;;;11.43;2.25;;;28.70;48.00;;;;;;5014705;28;20299;-64
2023/08/14 12:57:50;;;;;;;7.07;2.58;;;28.80;99.90;;;;;;5006587;28;20231;-63
2023/08/14 13:00:22;;;;;;;6.22;2.05;;;28.80;1.00;;;;;;4995116;28;20585;-63
2023/08/14 13:02:50;;;;;;;7.22;2.33;;;28.90;1.00;;;;;;5009341;28;20231;-64
2023/08/14 13:05:18;;;;;;;3.53;2.00;;;28.80;1.00;;;;;;4993548;28;20239;-64